Startpagina
METAR-TAF:

METAR-TAF

Vliegvelden :

Weno, Micronesië

breedte: 07-28N, lengte: 151-51E, hoogte: 3 m

Actueel weer

Dit bericht is 15 minuten geleden gemaakt, om 13:50 UTC
Wind 5 kt uit variabele richting
Temperatuur 28°C
Vochtigheid 84%
Druk 1008 hPa
Zicht: 24.1 km
Weinig wolken op 1400 ft
Verspreide wolken op 12000 ft
Geheel bewolkt op 28000 ft

METAR: PTKK 261350Z VRB05KT 15SM FEW014 SCT120 OVC280 28/25 A2978 RMK SLP088 T02780248

Tijdstip: 00:05 (14:05 UTC)

Verwachting

Dit bericht is 2 uur en het 45 minuten geleden gemaakt, om 11:20 UTC
Verwachting geldig van 26 om 12 UTC tot 27 om 12 UTC
Wind 8 kt uit het noordoosten
Zicht: 10 km
Verspreide wolken op 1400 ft
Verspreide wolken op 12000 ft
Gebroken wolken op 28000 ft
buien in de omgeving

TAF: PTKK 261120Z 2612/2712 04008KT P6SM VCSH SCT014 SCT120 BKN280

Waarnemingen en weersverwachtingen van meer dan 4000 vliegvelden (METAR en TAF).

De beschikbare stations zijn de gele en rode punten op de kaart.

Ga met uw muis naar het station om de naam te zien.

Klik dan om waarnemingen en weersverwachtingen te zien.

kaart wijzigen: klik op de groene knoppen met een zwart kruis om in te zoomen, op de groene knop met een streepje om uit te zoomen of op de groene pijlen voor aangrenzende kaarten.


METAR-TAF: